sensor_id;sensor_type;location;lat;lon;timestamp;P1;durP1;ratioP1;P2;durP2;ratioP2
37641;SDS011;23486;51.956;5.888;2022-08-19T00:01:27;3.75;;;2.67;;
37641;SDS011;23486;51.956;5.888;2022-08-19T00:03:54;3.47;;;1.85;;
37641;SDS011;23486;51.956;5.888;2022-08-19T00:06:21;4.90;;;3.30;;
37641;SDS011;23486;51.956;5.888;2022-08-19T00:08:46;4.45;;;3.20;;
37641;SDS011;23486;51.956;5.888;2022-08-19T00:11:12;5.28;;;2.78;;
37641;SDS011;23486;51.956;5.888;2022-08-19T00:13:37;4.57;;;3.05;;
37641;SDS011;23486;51.956;5.888;2022-08-19T00:16:03;5.00;;;3.30;;
37641;SDS011;23486;51.956;5.888;2022-08-19T00:18:34;4.13;;;2.80;;
37641;SDS011;23486;51.956;5.888;2022-08-19T00:21:02;6.95;;;3.03;;
37641;SDS011;23486;51.956;5.888;2022-08-19T00:23:32;4.05;;;2.55;;
37641;SDS011;23486;51.956;5.888;2022-08-19T00:25:59;3.95;;;3.55;;
37641;SDS011;23486;51.956;5.888;2022-08-19T00:28:25;4.45;;;2.88;;
37641;SDS011;23486;51.956;5.888;2022-08-19T00:30:50;3.97;;;2.72;;
37641;SDS011;23486;51.956;5.888;2022-08-19T00:33:18;3.85;;;2.63;;
37641;SDS011;23486;51.956;5.888;2022-08-19T00:35:44;4.90;;;3.17;;
37641;SDS011;23486;51.956;5.888;2022-08-19T00:38:09;4.30;;;3.53;;
37641;SDS011;23486;51.956;5.888;2022-08-19T00:40:35;4.90;;;3.28;;
37641;SDS011;23486;51.956;5.888;2022-08-19T00:43:00;4.57;;;3.17;;
37641;SDS011;23486;51.956;5.888;2022-08-19T00:45:28;4.45;;;2.78;;
37641;SDS011;23486;51.956;5.888;2022-08-19T00:47:57;4.00;;;3.00;;
37641;SDS011;23486;51.956;5.888;2022-08-19T00:50:23;4.75;;;2.97;;
37641;SDS011;23486;51.956;5.888;2022-08-19T00:52:49;5.43;;;3.40;;
37641;SDS011;23486;51.956;5.888;2022-08-19T00:55:18;4.82;;;2.90;;
37641;SDS011;23486;51.956;5.888;2022-08-19T00:57:48;3.65;;;3.08;;
37641;SDS011;23486;51.956;5.888;2022-08-19T01:00:20;3.88;;;3.13;;
37641;SDS011;23486;51.956;5.888;2022-08-19T01:02:47;4.53;;;3.17;;
37641;SDS011;23486;51.956;5.888;2022-08-19T01:05:14;4.80;;;3.50;;
37641;SDS011;23486;51.956;5.888;2022-08-19T01:07:43;5.03;;;3.25;;
37641;SDS011;23486;51.956;5.888;2022-08-19T01:10:14;5.68;;;4.35;;
37641;SDS011;23486;51.956;5.888;2022-08-19T01:12:45;4.20;;;3.28;;
37641;SDS011;23486;51.956;5.888;2022-08-19T01:15:13;5.20;;;3.35;;
37641;SDS011;23486;51.956;5.888;2022-08-19T01:17:41;3.97;;;3.10;;
37641;SDS011;23486;51.956;5.888;2022-08-19T01:20:16;4.10;;;3.70;;
37641;SDS011;23486;51.956;5.888;2022-08-19T01:22:46;7.22;;;4.10;;
37641;SDS011;23486;51.956;5.888;2022-08-19T01:25:15;5.18;;;4.15;;
37641;SDS011;23486;51.956;5.888;2022-08-19T01:27:44;6.78;;;4.13;;
37641;SDS011;23486;51.956;5.888;2022-08-19T01:30:14;4.72;;;3.80;;
37641;SDS011;23486;51.956;5.888;2022-08-19T01:32:43;5.25;;;3.83;;
37641;SDS011;23486;51.956;5.888;2022-08-19T01:35:09;7.45;;;4.63;;
37641;SDS011;23486;51.956;5.888;2022-08-19T01:37:44;5.25;;;3.50;;
37641;SDS011;23486;51.956;5.888;2022-08-19T01:40:11;4.43;;;3.72;;
37641;SDS011;23486;51.956;5.888;2022-08-19T01:42:37;4.78;;;3.50;;
37641;SDS011;23486;51.956;5.888;2022-08-19T01:45:03;5.47;;;3.90;;
37641;SDS011;23486;51.956;5.888;2022-08-19T01:47:31;5.15;;;3.65;;
37641;SDS011;23486;51.956;5.888;2022-08-19T01:49:59;4.60;;;3.65;;
37641;SDS011;23486;51.956;5.888;2022-08-19T01:52:24;6.35;;;4.32;;
37641;SDS011;23486;51.956;5.888;2022-08-19T01:54:53;5.50;;;3.85;;
37641;SDS011;23486;51.956;5.888;2022-08-19T01:57:18;5.28;;;4.13;;
37641;SDS011;23486;51.956;5.888;2022-08-19T01:59:44;5.50;;;4.25;;
37641;SDS011;23486;51.956;5.888;2022-08-19T02:02:10;5.10;;;3.95;;
37641;SDS011;23486;51.956;5.888;2022-08-19T02:04:36;5.22;;;3.90;;
37641;SDS011;23486;51.956;5.888;2022-08-19T02:07:06;5.13;;;4.53;;
37641;SDS011;23486;51.956;5.888;2022-08-19T02:09:33;5.25;;;4.35;;
37641;SDS011;23486;51.956;5.888;2022-08-19T02:11:59;5.85;;;4.72;;
37641;SDS011;23486;51.956;5.888;2022-08-19T02:14:25;5.70;;;4.00;;
37641;SDS011;23486;51.956;5.888;2022-08-19T02:16:50;6.03;;;4.85;;
37641;SDS011;23486;51.956;5.888;2022-08-19T02:19:16;6.60;;;4.78;;
37641;SDS011;23486;51.956;5.888;2022-08-19T02:21:42;6.55;;;4.80;;
37641;SDS011;23486;51.956;5.888;2022-08-19T02:24:08;5.40;;;4.70;;
37641;SDS011;23486;51.956;5.888;2022-08-19T02:26:34;5.30;;;4.75;;
37641;SDS011;23486;51.956;5.888;2022-08-19T02:29:00;6.82;;;5.43;;
37641;SDS011;23486;51.956;5.888;2022-08-19T02:31:26;6.35;;;5.07;;
37641;SDS011;23486;51.956;5.888;2022-08-19T02:33:52;6.65;;;5.55;;
37641;SDS011;23486;51.956;5.888;2022-08-19T02:36:18;8.23;;;6.00;;
37641;SDS011;23486;51.956;5.888;2022-08-19T02:38:44;5.95;;;5.35;;
37641;SDS011;23486;51.956;5.888;2022-08-19T02:41:11;9.27;;;8.18;;
37641;SDS011;23486;51.956;5.888;2022-08-19T02:43:45;8.77;;;7.32;;
37641;SDS011;23486;51.956;5.888;2022-08-19T02:48:51;9.20;;;7.53;;
37641;SDS011;23486;51.956;5.888;2022-08-19T02:51:18;9.70;;;8.05;;
37641;SDS011;23486;51.956;5.888;2022-08-19T02:53:46;11.57;;;8.18;;
37641;SDS011;23486;51.956;5.888;2022-08-19T02:56:11;10.05;;;8.75;;
37641;SDS011;23486;51.956;5.888;2022-08-19T02:58:37;11.90;;;9.73;;
37641;SDS011;23486;51.956;5.888;2022-08-19T03:01:03;12.07;;;8.48;;
37641;SDS011;23486;51.956;5.888;2022-08-19T03:03:28;10.75;;;8.93;;
37641;SDS011;23486;51.956;5.888;2022-08-19T03:06:08;13.10;;;9.95;;
37641;SDS011;23486;51.956;5.888;2022-08-19T03:08:35;9.55;;;8.65;;
37641;SDS011;23486;51.956;5.888;2022-08-19T03:11:02;11.10;;;9.20;;
37641;SDS011;23486;51.956;5.888;2022-08-19T03:13:28;10.13;;;8.27;;
37641;SDS011;23486;51.956;5.888;2022-08-19T03:15:55;10.40;;;8.73;;
37641;SDS011;23486;51.956;5.888;2022-08-19T03:18:20;8.75;;;7.88;;
37641;SDS011;23486;51.956;5.888;2022-08-19T03:20:49;10.75;;;8.05;;
37641;SDS011;23486;51.956;5.888;2022-08-19T03:23:18;9.63;;;7.43;;
37641;SDS011;23486;51.956;5.888;2022-08-19T03:25:46;11.95;;;9.40;;
37641;SDS011;23486;51.956;5.888;2022-08-19T03:28:13;13.93;;;9.55;;
37641;SDS011;23486;51.956;5.888;2022-08-19T03:30:40;11.65;;;9.18;;
37641;SDS011;23486;51.956;5.888;2022-08-19T03:33:21;10.35;;;8.57;;
37641;SDS011;23486;51.956;5.888;2022-08-19T03:35:47;11.35;;;9.07;;
37641;SDS011;23486;51.956;5.888;2022-08-19T03:38:28;10.38;;;9.05;;
37641;SDS011;23486;51.956;5.888;2022-08-19T03:40:54;13.05;;;10.15;;
37641;SDS011;23486;51.956;5.888;2022-08-19T03:43:20;11.35;;;9.50;;
37641;SDS011;23486;51.956;5.888;2022-08-19T03:45:46;14.07;;;9.85;;
37641;SDS011;23486;51.956;5.888;2022-08-19T03:48:13;16.20;;;9.60;;
37641;SDS011;23486;51.956;5.888;2022-08-19T03:50:40;10.90;;;8.73;;
37641;SDS011;23486;51.956;5.888;2022-08-19T03:53:05;12.23;;;8.80;;
37641;SDS011;23486;51.956;5.888;2022-08-19T03:55:38;9.68;;;8.32;;
37641;SDS011;23486;51.956;5.888;2022-08-19T03:58:05;9.70;;;8.43;;
37641;SDS011;23486;51.956;5.888;2022-08-19T04:00:31;10.15;;;7.97;;
37641;SDS011;23486;51.956;5.888;2022-08-19T04:02:58;10.77;;;8.45;;
37641;SDS011;23486;51.956;5.888;2022-08-19T04:05:24;9.98;;;8.27;;
37641;SDS011;23486;51.956;5.888;2022-08-19T04:07:53;9.90;;;7.82;;
37641;SDS011;23486;51.956;5.888;2022-08-19T04:10:23;8.10;;;7.30;;
37641;SDS011;23486;51.956;5.888;2022-08-19T04:12:49;11.13;;;9.13;;
37641;SDS011;23486;51.956;5.888;2022-08-19T04:15:15;9.95;;;7.20;;
37641;SDS011;23486;51.956;5.888;2022-08-19T04:17:40;9.73;;;8.07;;
37641;SDS011;23486;51.956;5.888;2022-08-19T04:20:06;10.60;;;7.88;;
37641;SDS011;23486;51.956;5.888;2022-08-19T04:22:35;9.23;;;7.82;;
37641;SDS011;23486;51.956;5.888;2022-08-19T04:25:00;11.60;;;9.38;;
37641;SDS011;23486;51.956;5.888;2022-08-19T04:27:29;11.02;;;7.70;;
37641;SDS011;23486;51.956;5.888;2022-08-19T04:29:56;10.48;;;8.57;;
37641;SDS011;23486;51.956;5.888;2022-08-19T04:32:22;12.20;;;9.23;;
37641;SDS011;23486;51.956;5.888;2022-08-19T04:34:47;10.48;;;9.15;;
37641;SDS011;23486;51.956;5.888;2022-08-19T04:37:13;9.77;;;8.55;;
37641;SDS011;23486;51.956;5.888;2022-08-19T04:39:39;9.02;;;7.85;;
37641;SDS011;23486;51.956;5.888;2022-08-19T04:42:23;10.00;;;8.90;;
37641;SDS011;23486;51.956;5.888;2022-08-19T04:45:05;10.13;;;7.70;;
37641;SDS011;23486;51.956;5.888;2022-08-19T04:47:34;9.93;;;7.47;;
37641;SDS011;23486;51.956;5.888;2022-08-19T04:50:04;9.05;;;7.55;;
37641;SDS011;23486;51.956;5.888;2022-08-19T04:52:30;11.40;;;9.20;;
37641;SDS011;23486;51.956;5.888;2022-08-19T04:54:57;10.35;;;8.68;;
37641;SDS011;23486;51.956;5.888;2022-08-19T04:57:23;11.32;;;9.25;;
37641;SDS011;23486;51.956;5.888;2022-08-19T04:59:49;10.02;;;8.50;;
37641;SDS011;23486;51.956;5.888;2022-08-19T05:02:19;11.63;;;7.97;;
37641;SDS011;23486;51.956;5.888;2022-08-19T05:04:44;10.07;;;9.07;;
37641;SDS011;23486;51.956;5.888;2022-08-19T05:07:10;12.70;;;9.60;;
37641;SDS011;23486;51.956;5.888;2022-08-19T05:09:36;10.13;;;9.13;;
37641;SDS011;23486;51.956;5.888;2022-08-19T05:12:02;11.63;;;10.40;;
37641;SDS011;23486;51.956;5.888;2022-08-19T05:14:28;12.02;;;10.15;;
37641;SDS011;23486;51.956;5.888;2022-08-19T05:16:54;13.55;;;9.35;;
37641;SDS011;23486;51.956;5.888;2022-08-19T05:19:19;11.10;;;9.75;;
37641;SDS011;23486;51.956;5.888;2022-08-19T05:22:04;12.57;;;9.48;;
37641;SDS011;23486;51.956;5.888;2022-08-19T05:24:48;11.52;;;9.25;;
37641;SDS011;23486;51.956;5.888;2022-08-19T05:27:13;11.20;;;9.77;;
37641;SDS011;23486;51.956;5.888;2022-08-19T05:29:39;11.32;;;9.88;;
37641;SDS011;23486;51.956;5.888;2022-08-19T05:32:05;12.80;;;9.25;;
37641;SDS011;23486;51.956;5.888;2022-08-19T05:34:33;10.75;;;9.18;;
37641;SDS011;23486;51.956;5.888;2022-08-19T05:37:00;11.70;;;10.50;;
37641;SDS011;23486;51.956;5.888;2022-08-19T05:39:31;10.23;;;9.13;;
37641;SDS011;23486;51.956;5.888;2022-08-19T05:42:00;10.05;;;8.98;;
37641;SDS011;23486;51.956;5.888;2022-08-19T05:44:29;10.48;;;8.93;;
37641;SDS011;23486;51.956;5.888;2022-08-19T05:46:56;12.05;;;10.85;;
37641;SDS011;23486;51.956;5.888;2022-08-19T05:49:23;13.73;;;10.65;;
37641;SDS011;23486;51.956;5.888;2022-08-19T05:51:50;14.18;;;12.65;;
37641;SDS011;23486;51.956;5.888;2022-08-19T05:54:17;15.45;;;13.32;;
37641;SDS011;23486;51.956;5.888;2022-08-19T05:56:43;18.40;;;13.98;;
37641;SDS011;23486;51.956;5.888;2022-08-19T05:59:10;16.25;;;13.38;;
37641;SDS011;23486;51.956;5.888;2022-08-19T06:01:39;17.67;;;15.77;;
37641;SDS011;23486;51.956;5.888;2022-08-19T06:04:06;18.90;;;14.90;;
37641;SDS011;23486;51.956;5.888;2022-08-19T06:06:34;19.00;;;16.00;;
37641;SDS011;23486;51.956;5.888;2022-08-19T06:09:04;20.70;;;16.88;;
37641;SDS011;23486;51.956;5.888;2022-08-19T06:11:38;21.08;;;17.17;;
37641;SDS011;23486;51.956;5.888;2022-08-19T06:14:11;20.63;;;15.38;;
37641;SDS011;23486;51.956;5.888;2022-08-19T06:16:39;20.25;;;16.13;;
37641;SDS011;23486;51.956;5.888;2022-08-19T06:19:07;23.70;;;17.65;;
37641;SDS011;23486;51.956;5.888;2022-08-19T06:21:39;20.63;;;17.67;;
37641;SDS011;23486;51.956;5.888;2022-08-19T06:24:06;22.45;;;17.42;;
37641;SDS011;23486;51.956;5.888;2022-08-19T06:26:34;23.70;;;18.17;;
37641;SDS011;23486;51.956;5.888;2022-08-19T06:29:02;23.92;;;17.75;;
37641;SDS011;23486;51.956;5.888;2022-08-19T06:31:29;22.02;;;15.38;;
37641;SDS011;23486;51.956;5.888;2022-08-19T06:33:56;25.63;;;20.15;;
37641;SDS011;23486;51.956;5.888;2022-08-19T06:38:54;24.98;;;18.77;;
37641;SDS011;23486;51.956;5.888;2022-08-19T06:41:22;23.77;;;18.45;;
37641;SDS011;23486;51.956;5.888;2022-08-19T06:43:51;23.67;;;18.73;;
37641;SDS011;23486;51.956;5.888;2022-08-19T06:46:17;23.98;;;17.10;;
37641;SDS011;23486;51.956;5.888;2022-08-19T06:48:44;24.08;;;17.60;;
37641;SDS011;23486;51.956;5.888;2022-08-19T06:51:11;25.70;;;18.98;;
37641;SDS011;23486;51.956;5.888;2022-08-19T06:53:40;34.30;;;22.45;;
37641;SDS011;23486;51.956;5.888;2022-08-19T06:56:08;40.53;;;25.48;;
37641;SDS011;23486;51.956;5.888;2022-08-19T06:58:33;47.78;;;29.63;;
37641;SDS011;23486;51.956;5.888;2022-08-19T07:01:00;61.53;;;34.80;;
37641;SDS011;23486;51.956;5.888;2022-08-19T07:03:31;61.35;;;33.92;;
37641;SDS011;23486;51.956;5.888;2022-08-19T07:06:11;56.88;;;32.35;;
37641;SDS011;23486;51.956;5.888;2022-08-19T07:08:56;68.82;;;36.60;;
37641;SDS011;23486;51.956;5.888;2022-08-19T07:11:23;69.70;;;36.33;;
37641;SDS011;23486;51.956;5.888;2022-08-19T07:13:49;62.65;;;34.40;;
37641;SDS011;23486;51.956;5.888;2022-08-19T07:16:18;67.03;;;37.17;;
37641;SDS011;23486;51.956;5.888;2022-08-19T07:18:45;62.25;;;35.63;;
37641;SDS011;23486;51.956;5.888;2022-08-19T07:23:49;57.80;;;33.28;;
37641;SDS011;23486;51.956;5.888;2022-08-19T07:26:19;57.70;;;32.45;;
37641;SDS011;23486;51.956;5.888;2022-08-19T07:28:53;63.17;;;37.13;;
37641;SDS011;23486;51.956;5.888;2022-08-19T07:31:20;62.97;;;36.78;;
37641;SDS011;23486;51.956;5.888;2022-08-19T07:33:48;62.30;;;36.47;;
37641;SDS011;23486;51.956;5.888;2022-08-19T07:36:17;65.45;;;39.63;;
37641;SDS011;23486;51.956;5.888;2022-08-19T07:38:47;71.72;;;42.30;;
37641;SDS011;23486;51.956;5.888;2022-08-19T07:41:16;60.15;;;37.42;;
37641;SDS011;23486;51.956;5.888;2022-08-19T07:43:47;74.30;;;43.80;;
37641;SDS011;23486;51.956;5.888;2022-08-19T07:46:18;70.38;;;40.92;;
37641;SDS011;23486;51.956;5.888;2022-08-19T07:48:48;72.80;;;45.92;;
37641;SDS011;23486;51.956;5.888;2022-08-19T07:51:16;70.47;;;42.95;;
37641;SDS011;23486;51.956;5.888;2022-08-19T07:53:44;70.10;;;44.22;;
37641;SDS011;23486;51.956;5.888;2022-08-19T07:56:15;69.25;;;43.10;;
37641;SDS011;23486;51.956;5.888;2022-08-19T07:58:42;57.53;;;37.38;;
37641;SDS011;23486;51.956;5.888;2022-08-19T08:01:10;57.05;;;38.50;;
37641;SDS011;23486;51.956;5.888;2022-08-19T08:03:40;56.90;;;41.92;;
37641;SDS011;23486;51.956;5.888;2022-08-19T08:06:24;63.42;;;43.83;;
37641;SDS011;23486;51.956;5.888;2022-08-19T08:09:09;57.20;;;40.35;;
37641;SDS011;23486;51.956;5.888;2022-08-19T08:11:57;48.78;;;37.85;;
37641;SDS011;23486;51.956;5.888;2022-08-19T08:14:29;49.05;;;37.03;;
37641;SDS011;23486;51.956;5.888;2022-08-19T08:16:58;48.22;;;36.97;;
37641;SDS011;23486;51.956;5.888;2022-08-19T08:19:24;47.53;;;36.38;;
37641;SDS011;23486;51.956;5.888;2022-08-19T08:21:52;49.88;;;37.72;;
37641;SDS011;23486;51.956;5.888;2022-08-19T08:24:18;49.85;;;37.47;;
37641;SDS011;23486;51.956;5.888;2022-08-19T08:26:45;51.08;;;39.08;;
37641;SDS011;23486;51.956;5.888;2022-08-19T08:29:11;50.42;;;37.42;;
37641;SDS011;23486;51.956;5.888;2022-08-19T08:31:37;46.45;;;37.17;;
37641;SDS011;23486;51.956;5.888;2022-08-19T08:34:05;49.40;;;38.38;;
37641;SDS011;23486;51.956;5.888;2022-08-19T08:36:30;53.40;;;37.53;;
37641;SDS011;23486;51.956;5.888;2022-08-19T08:38:58;48.28;;;36.22;;
37641;SDS011;23486;51.956;5.888;2022-08-19T08:44:12;44.88;;;32.67;;
37641;SDS011;23486;51.956;5.888;2022-08-19T08:46:47;44.97;;;31.73;;
37641;SDS011;23486;51.956;5.888;2022-08-19T08:49:24;45.67;;;33.08;;
37641;SDS011;23486;51.956;5.888;2022-08-19T08:51:57;36.40;;;27.83;;
37641;SDS011;23486;51.956;5.888;2022-08-19T08:54:32;33.00;;;25.60;;
37641;SDS011;23486;51.956;5.888;2022-08-19T08:57:02;41.72;;;30.35;;
37641;SDS011;23486;51.956;5.888;2022-08-19T08:59:33;39.10;;;29.67;;
37641;SDS011;23486;51.956;5.888;2022-08-19T09:02:01;41.58;;;30.50;;
37641;SDS011;23486;51.956;5.888;2022-08-19T09:04:27;34.25;;;26.40;;
37641;SDS011;23486;51.956;5.888;2022-08-19T09:10:14;32.97;;;23.65;;
37641;SDS011;23486;51.956;5.888;2022-08-19T09:15:47;32.38;;;23.42;;
37641;SDS011;23486;51.956;5.888;2022-08-19T09:18:18;29.42;;;22.85;;
37641;SDS011;23486;51.956;5.888;2022-08-19T09:20:43;34.30;;;23.17;;
37641;SDS011;23486;51.956;5.888;2022-08-19T09:23:11;36.58;;;27.05;;
37641;SDS011;23486;51.956;5.888;2022-08-19T09:25:37;34.03;;;26.05;;
37641;SDS011;23486;51.956;5.888;2022-08-19T09:28:05;29.85;;;21.92;;
37641;SDS011;23486;51.956;5.888;2022-08-19T09:30:32;31.50;;;24.40;;
37641;SDS011;23486;51.956;5.888;2022-08-19T09:33:04;35.22;;;26.48;;
37641;SDS011;23486;51.956;5.888;2022-08-19T09:35:30;35.38;;;25.58;;
37641;SDS011;23486;51.956;5.888;2022-08-19T09:37:56;32.05;;;24.73;;
37641;SDS011;23486;51.956;5.888;2022-08-19T09:40:22;36.35;;;28.08;;
37641;SDS011;23486;51.956;5.888;2022-08-19T09:42:48;34.05;;;25.30;;
37641;SDS011;23486;51.956;5.888;2022-08-19T09:45:15;36.30;;;27.13;;
37641;SDS011;23486;51.956;5.888;2022-08-19T09:47:42;40.40;;;26.70;;
37641;SDS011;23486;51.956;5.888;2022-08-19T09:50:09;34.65;;;25.95;;
37641;SDS011;23486;51.956;5.888;2022-08-19T09:52:38;40.60;;;28.05;;
37641;SDS011;23486;51.956;5.888;2022-08-19T09:55:05;36.42;;;24.23;;
37641;SDS011;23486;51.956;5.888;2022-08-19T09:57:32;35.03;;;22.33;;
37641;SDS011;23486;51.956;5.888;2022-08-19T09:59:58;30.00;;;20.65;;
37641;SDS011;23486;51.956;5.888;2022-08-19T10:02:24;32.17;;;23.30;;
37641;SDS011;23486;51.956;5.888;2022-08-19T10:04:50;31.67;;;24.13;;
37641;SDS011;23486;51.956;5.888;2022-08-19T10:07:34;31.70;;;22.73;;
37641;SDS011;23486;51.956;5.888;2022-08-19T10:10:00;28.83;;;22.52;;
37641;SDS011;23486;51.956;5.888;2022-08-19T10:12:27;27.85;;;19.95;;
37641;SDS011;23486;51.956;5.888;2022-08-19T10:14:52;26.83;;;19.88;;
37641;SDS011;23486;51.956;5.888;2022-08-19T10:17:19;27.83;;;20.65;;
37641;SDS011;23486;51.956;5.888;2022-08-19T10:19:45;25.85;;;19.02;;
37641;SDS011;23486;51.956;5.888;2022-08-19T10:22:12;28.05;;;19.50;;
37641;SDS011;23486;51.956;5.888;2022-08-19T10:24:39;27.25;;;19.75;;
37641;SDS011;23486;51.956;5.888;2022-08-19T10:27:06;24.00;;;16.77;;
37641;SDS011;23486;51.956;5.888;2022-08-19T10:29:32;22.38;;;17.58;;
37641;SDS011;23486;51.956;5.888;2022-08-19T10:32:03;24.92;;;18.27;;
37641;SDS011;23486;51.956;5.888;2022-08-19T10:34:32;24.73;;;18.65;;
37641;SDS011;23486;51.956;5.888;2022-08-19T10:37:00;23.85;;;16.98;;
37641;SDS011;23486;51.956;5.888;2022-08-19T10:39:26;23.48;;;16.50;;
37641;SDS011;23486;51.956;5.888;2022-08-19T10:41:55;25.60;;;17.50;;
37641;SDS011;23486;51.956;5.888;2022-08-19T10:44:22;24.50;;;17.02;;
37641;SDS011;23486;51.956;5.888;2022-08-19T10:46:55;23.67;;;17.35;;
37641;SDS011;23486;51.956;5.888;2022-08-19T10:49:21;25.33;;;18.48;;
37641;SDS011;23486;51.956;5.888;2022-08-19T10:51:47;26.67;;;19.10;;
37641;SDS011;23486;51.956;5.888;2022-08-19T10:54:32;24.15;;;17.05;;
37641;SDS011;23486;51.956;5.888;2022-08-19T10:57:16;23.88;;;17.50;;
37641;SDS011;23486;51.956;5.888;2022-08-19T10:59:42;24.00;;;18.38;;
37641;SDS011;23486;51.956;5.888;2022-08-19T11:02:08;27.08;;;19.88;;
37641;SDS011;23486;51.956;5.888;2022-08-19T11:04:36;23.45;;;18.08;;
37641;SDS011;23486;51.956;5.888;2022-08-19T11:07:03;20.27;;;15.18;;
37641;SDS011;23486;51.956;5.888;2022-08-19T11:09:36;22.33;;;16.65;;
37641;SDS011;23486;51.956;5.888;2022-08-19T11:12:06;26.23;;;19.27;;
37641;SDS011;23486;51.956;5.888;2022-08-19T11:14:33;20.38;;;15.27;;
37641;SDS011;23486;51.956;5.888;2022-08-19T11:17:03;17.90;;;14.00;;
37641;SDS011;23486;51.956;5.888;2022-08-19T11:19:30;18.70;;;15.32;;
37641;SDS011;23486;51.956;5.888;2022-08-19T11:21:55;21.17;;;15.00;;
37641;SDS011;23486;51.956;5.888;2022-08-19T11:24:22;22.95;;;15.48;;
37641;SDS011;23486;51.956;5.888;2022-08-19T11:26:49;22.90;;;17.65;;
37641;SDS011;23486;51.956;5.888;2022-08-19T11:29:17;21.83;;;16.63;;
37641;SDS011;23486;51.956;5.888;2022-08-19T11:31:45;20.48;;;16.25;;
37641;SDS011;23486;51.956;5.888;2022-08-19T11:34:14;23.40;;;17.17;;
37641;SDS011;23486;51.956;5.888;2022-08-19T11:36:42;19.48;;;15.57;;
37641;SDS011;23486;51.956;5.888;2022-08-19T11:39:10;22.52;;;17.40;;
37641;SDS011;23486;51.956;5.888;2022-08-19T11:41:38;20.10;;;15.43;;
37641;SDS011;23486;51.956;5.888;2022-08-19T11:44:04;20.20;;;16.08;;
37641;SDS011;23486;51.956;5.888;2022-08-19T11:46:32;17.13;;;12.48;;
37641;SDS011;23486;51.956;5.888;2022-08-19T11:48:59;18.60;;;13.07;;
37641;SDS011;23486;51.956;5.888;2022-08-19T11:51:26;17.27;;;13.40;;
37641;SDS011;23486;51.956;5.888;2022-08-19T11:53:53;21.77;;;15.27;;
37641;SDS011;23486;51.956;5.888;2022-08-19T11:56:20;18.10;;;12.80;;
37641;SDS011;23486;51.956;5.888;2022-08-19T11:58:47;16.30;;;12.95;;
37641;SDS011;23486;51.956;5.888;2022-08-19T12:01:13;18.50;;;14.18;;
37641;SDS011;23486;51.956;5.888;2022-08-19T12:03:41;19.00;;;15.20;;
37641;SDS011;23486;51.956;5.888;2022-08-19T12:06:09;17.40;;;14.00;;
37641;SDS011;23486;51.956;5.888;2022-08-19T12:08:38;23.40;;;19.83;;
37641;SDS011;23486;51.956;5.888;2022-08-19T12:11:05;20.40;;;18.20;;
37641;SDS011;23486;51.956;5.888;2022-08-19T12:13:33;20.25;;;14.95;;
37641;SDS011;23486;51.956;5.888;2022-08-19T12:15:59;23.38;;;18.48;;
37641;SDS011;23486;51.956;5.888;2022-08-19T12:18:26;18.38;;;15.50;;
37641;SDS011;23486;51.956;5.888;2022-08-19T12:20:55;21.15;;;16.75;;
37641;SDS011;23486;51.956;5.888;2022-08-19T12:23:21;19.58;;;17.13;;
37641;SDS011;23486;51.956;5.888;2022-08-19T12:25:47;18.05;;;15.65;;
37641;SDS011;23486;51.956;5.888;2022-08-19T12:28:20;18.65;;;15.50;;
37641;SDS011;23486;51.956;5.888;2022-08-19T12:30:47;23.10;;;19.30;;
37641;SDS011;23486;51.956;5.888;2022-08-19T12:33:15;19.23;;;17.02;;
37641;SDS011;23486;51.956;5.888;2022-08-19T12:35:41;22.02;;;17.52;;
37641;SDS011;23486;51.956;5.888;2022-08-19T12:38:09;22.35;;;19.48;;
37641;SDS011;23486;51.956;5.888;2022-08-19T12:40:35;20.08;;;16.65;;
37641;SDS011;23486;51.956;5.888;2022-08-19T12:43:01;20.65;;;18.45;;
37641;SDS011;23486;51.956;5.888;2022-08-19T12:45:26;21.85;;;18.02;;
37641;SDS011;23486;51.956;5.888;2022-08-19T12:47:52;28.98;;;22.95;;
37641;SDS011;23486;51.956;5.888;2022-08-19T12:50:17;26.55;;;20.70;;
37641;SDS011;23486;51.956;5.888;2022-08-19T12:52:46;19.80;;;17.75;;
37641;SDS011;23486;51.956;5.888;2022-08-19T12:55:12;22.35;;;18.90;;
37641;SDS011;23486;51.956;5.888;2022-08-19T12:57:38;23.38;;;18.25;;
37641;SDS011;23486;51.956;5.888;2022-08-19T13:00:06;21.08;;;17.77;;
37641;SDS011;23486;51.956;5.888;2022-08-19T13:02:38;30.88;;;25.13;;
37641;SDS011;23486;51.956;5.888;2022-08-19T13:05:06;22.05;;;19.30;;
37641;SDS011;23486;51.956;5.888;2022-08-19T13:07:33;20.40;;;17.92;;
37641;SDS011;23486;51.956;5.888;2022-08-19T13:10:00;20.95;;;18.15;;
37641;SDS011;23486;51.956;5.888;2022-08-19T13:12:27;26.35;;;22.08;;
37641;SDS011;23486;51.956;5.888;2022-08-19T13:14:53;34.38;;;28.48;;
37641;SDS011;23486;51.956;5.888;2022-08-19T13:17:20;19.25;;;17.13;;
37641;SDS011;23486;51.956;5.888;2022-08-19T13:19:45;24.38;;;20.02;;
37641;SDS011;23486;51.956;5.888;2022-08-19T13:22:11;21.85;;;17.48;;
37641;SDS011;23486;51.956;5.888;2022-08-19T13:24:37;17.67;;;15.48;;
37641;SDS011;23486;51.956;5.888;2022-08-19T13:27:09;16.55;;;14.93;;
37641;SDS011;23486;51.956;5.888;2022-08-19T13:29:39;14.18;;;12.57;;
37641;SDS011;23486;51.956;5.888;2022-08-19T13:32:24;18.92;;;15.82;;
37641;SDS011;23486;51.956;5.888;2022-08-19T13:35:08;16.88;;;14.23;;
37641;SDS011;23486;51.956;5.888;2022-08-19T13:37:34;16.45;;;14.75;;
37641;SDS011;23486;51.956;5.888;2022-08-19T13:40:10;16.17;;;14.30;;
37641;SDS011;23486;51.956;5.888;2022-08-19T13:42:49;13.27;;;11.88;;
37641;SDS011;23486;51.956;5.888;2022-08-19T13:45:17;16.20;;;14.50;;
37641;SDS011;23486;51.956;5.888;2022-08-19T13:47:51;17.10;;;15.30;;
37641;SDS011;23486;51.956;5.888;2022-08-19T13:50:19;19.58;;;17.55;;
37641;SDS011;23486;51.956;5.888;2022-08-19T13:52:49;17.15;;;15.18;;
37641;SDS011;23486;51.956;5.888;2022-08-19T13:55:15;21.70;;;19.13;;
37641;SDS011;23486;51.956;5.888;2022-08-19T13:57:41;15.38;;;13.77;;
37641;SDS011;23486;51.956;5.888;2022-08-19T14:00:08;14.50;;;13.07;;
37641;SDS011;23486;51.956;5.888;2022-08-19T14:05:07;22.25;;;19.42;;
37641;SDS011;23486;51.956;5.888;2022-08-19T14:07:35;16.52;;;14.30;;
37641;SDS011;23486;51.956;5.888;2022-08-19T14:10:01;18.75;;;16.15;;
37641;SDS011;23486;51.956;5.888;2022-08-19T14:12:29;17.88;;;13.10;;
37641;SDS011;23486;51.956;5.888;2022-08-19T14:14:56;18.00;;;15.10;;
37641;SDS011;23486;51.956;5.888;2022-08-19T14:17:22;19.90;;;17.65;;
37641;SDS011;23486;51.956;5.888;2022-08-19T14:19:48;17.13;;;15.30;;
37641;SDS011;23486;51.956;5.888;2022-08-19T14:22:13;20.50;;;16.50;;
37641;SDS011;23486;51.956;5.888;2022-08-19T14:24:39;17.27;;;14.55;;
37641;SDS011;23486;51.956;5.888;2022-08-19T14:27:05;16.08;;;12.52;;
37641;SDS011;23486;51.956;5.888;2022-08-19T14:29:31;16.02;;;12.88;;
37641;SDS011;23486;51.956;5.888;2022-08-19T14:31:57;14.85;;;13.30;;
37641;SDS011;23486;51.956;5.888;2022-08-19T14:34:24;14.88;;;12.25;;
37641;SDS011;23486;51.956;5.888;2022-08-19T14:36:50;16.58;;;13.35;;
37641;SDS011;23486;51.956;5.888;2022-08-19T14:39:17;21.05;;;15.90;;
37641;SDS011;23486;51.956;5.888;2022-08-19T14:41:42;22.00;;;17.10;;
37641;SDS011;23486;51.956;5.888;2022-08-19T14:44:08;19.83;;;16.90;;
37641;SDS011;23486;51.956;5.888;2022-08-19T14:46:37;18.90;;;14.25;;
37641;SDS011;23486;51.956;5.888;2022-08-19T14:49:03;17.80;;;12.55;;
37641;SDS011;23486;51.956;5.888;2022-08-19T14:51:29;16.73;;;12.70;;
37641;SDS011;23486;51.956;5.888;2022-08-19T14:53:55;13.93;;;11.80;;